| time (UTC) | temp F | wind direction | speed MPH | gust MPH | rain 1hr in | rain 24hr in | rain mn in | humidity % | barometer mb |
| 20260510191525 | 70 | 220 | 0.0 | 4.0 | 0.00 | 0.07 | 0.02 | 31 | 1023.1 |
| 20260510190032 | 69 | 238 | 0.0 | 3.0 | 0.00 | 0.07 | 0.02 | 31 | 1023.1 |
| 20260510184523 | 68 | 299 | 0.0 | 7.0 | 0.00 | 0.07 | 0.02 | 31 | 1023.3 |
| 20260510183033 | 68 | 302 | 0.0 | 3.0 | 0.00 | 0.07 | 0.02 | 32 | 1023.4 |
| 20260510181534 | 67 | 328 | 0.0 | 4.0 | 0.00 | 0.07 | 0.02 | 34 | 1023.5 |
| 20260510180027 | 67 | 284 | 0.0 | 1.0 | 0.00 | 0.07 | 0.02 | 32 | 1023.6 |
| 20260510174520 | 68 | 41 | 0.0 | 1.0 | 0.00 | 0.07 | 0.02 | 36 | 1023.8 |
| 20260510173026 | 66 | 219 | 0.0 | 1.0 | 0.00 | 0.07 | 0.02 | 35 | 1023.7 |
| 20260510171528 | 66 | 52 | 0.0 | 2.0 | 0.00 | 0.07 | 0.02 | 37 | 1024.0 |
| 20260510170015 | 65 | 328 | 0.0 | 1.0 | 0.00 | 0.07 | 0.02 | 41 | 1023.9 |
| 20260510164522 | 65 | 101 | 0.0 | 0.0 | 0.00 | 0.07 | 0.02 | 40 | 1023.8 |
| 20260510163022 | 63 | 173 | 0.0 | 1.0 | 0.00 | 0.07 | 0.02 | 41 | 1023.9 |
| 20260510161528 | 62 | 147 | 0.0 | 1.0 | 0.00 | 0.07 | 0.02 | 44 | 1023.9 |
| 20260510160030 | 60 | 122 | 0.0 | 1.0 | 0.00 | 0.07 | 0.02 | 45 | 1023.7 |
| 20260510154514 | 60 | 58 | 0.0 | 1.0 | 0.00 | 0.07 | 0.02 | 46 | 1023.7 |
| 20260510153033 | 59 | 124 | 0.0 | 1.0 | 0.00 | 0.07 | 0.02 | 47 | 1023.6 |
| 20260510151522 | 58 | 89 | 0.0 | 0.0 | 0.00 | 0.07 | 0.02 | 52 | 1023.1 |
| 20260510150026 | 57 | 164 | 0.0 | 1.0 | 0.00 | 0.07 | 0.02 | 54 | 1023.3 |
| 20260510144541 | 56 | 127 | 0.0 | 1.0 | 0.00 | 0.07 | 0.02 | 53 | 1023.4 |
| 20260510143015 | 56 | 140 | 0.0 | 1.0 | 0.00 | 0.07 | 0.02 | 54 | 1023.1 |
| 20260510141523 | 55 | 104 | 0.0 | 0.0 | 0.00 | 0.07 | 0.02 | 53 | 1023.0 |
| 20260510140029 | 55 | 119 | 0.0 | 1.0 | 0.00 | 0.07 | 0.02 | 54 | 1022.5 |
| 20260510134527 | 55 | 44 | 0.0 | 1.0 | 0.00 | 0.07 | 0.02 | 54 | 1022.5 |
| 20260510133029 | 55 | 8 | 0.0 | 0.0 | 0.00 | 0.07 | 0.02 | 54 | 1022.2 |
| 20260510131519 | 55 | 20 | 0.0 | 1.0 | 0.00 | 0.07 | 0.02 | 54 | 1021.7 |
| 20260510130024 | 55 | 96 | 0.0 | 2.0 | 0.00 | 0.07 | 0.02 | 54 | 1021.5 |
| 20260510124526 | 55 | 39 | 0.0 | 1.0 | 0.00 | 0.07 | 0.02 | 55 | 1021.0 |
| 20260510123032 | 55 | 237 | 0.0 | 2.0 | 0.00 | 0.07 | 0.02 | 54 | 1020.8 |
| 20260510121530 | 55 | 68 | 0.0 | 1.0 | 0.00 | 0.07 | 0.02 | 53 | 1020.5 |
| 20260510120020 | 55 | 173 | 0.0 | 2.0 | 0.00 | 0.07 | 0.02 | 55 | 1020.2 |
| 20260510114529 | 54 | 1 | 0.0 | 1.0 | 0.00 | 0.07 | 0.02 | 55 | 1019.5 |
| 20260510113029 | 54 | 338 | 0.0 | 3.0 | 0.00 | 0.07 | 0.02 | 58 | 1019.2 |
| 20260510111530 | 54 | 207 | 0.0 | 4.0 | 0.00 | 0.07 | 0.02 | 60 | 1019.4 |
| 20260510110023 | 54 | 205 | 0.0 | 6.0 | 0.00 | 0.07 | 0.02 | 61 | 1018.8 |
| 20260510104522 | 54 | 160 | 1.0 | 8.0 | 0.00 | 0.07 | 0.02 | 63 | 1018.6 |
| 20260510103020 | 54 | 139 | 0.0 | 4.0 | 0.00 | 0.07 | 0.02 | 66 | 1018.3 |
| 20260510101513 | 55 | 51 | 0.0 | 3.0 | 0.01 | 0.07 | 0.02 | 67 | 1018.3 |
| 20260510100016 | 55 | 328 | 0.0 | 4.0 | 0.01 | 0.07 | 0.02 | 69 | 1018.5 |
| 20260510094520 | 56 | 82 | 0.0 | 1.0 | 0.02 | 0.07 | 0.02 | 69 | 1018.7 |
| 20260510093024 | 56 | 51 | 0.0 | 2.0 | 0.02 | 0.07 | 0.02 | 69 | 1018.7 |
| 20260510091524 | 57 | 8 | 0.0 | 1.0 | 0.01 | 0.06 | 0.01 | 67 | 1018.8 |
| 20260510090014 | 58 | 16 | 0.0 | 1.0 | 0.01 | 0.06 | 0.01 | 69 | 1018.6 |
| 20260510084520 | 58 | 340 | 0.0 | 1.0 | 0.00 | 0.05 | 0.00 | 68 | 1018.4 |
| 20260510083034 | 57 | 342 | 0.0 | 1.0 | 0.00 | 0.05 | 0.00 | 70 | 1018.1 |
| 20260510081523 | 57 | 6 | 0.0 | 0.0 | 0.00 | 0.05 | 0.00 | 70 | 1018.0 |
| 20260510080024 | 57 | 342 | 0.0 | 0.0 | 0.00 | 0.05 | 0.00 | 68 | 1017.5 |
| 20260510074515 | 58 | 126 | 0.0 | 0.0 | 0.00 | 0.05 | 0.00 | 67 | 1017.1 |
| 20260510073026 | 58 | 323 | 0.0 | 1.0 | 0.00 | 0.05 | 0.00 | 65 | 1016.7 |
| 20260510071539 | 59 | 303 | 0.0 | 1.0 | 0.00 | 0.05 | 0.00 | 64 | 1016.7 |
| 20260510070030 | 59 | 301 | 0.0 | 1.0 | 0.00 | 0.05 | 0.00 | 64 | 1016.3 |
| 20260510064528 | 59 | 13 | 0.0 | 1.0 | 0.00 | 0.05 | 0.00 | 64 | 1015.9 |
| 20260510063019 | 60 | 342 | 0.0 | 0.0 | 0.00 | 0.05 | 0.00 | 63 | 1015.9 |
| 20260510061522 | 60 | 331 | 0.0 | 1.0 | 0.00 | 0.05 | 0.00 | 63 | 1016.2 |
| 20260510060033 | 61 | 240 | 0.0 | 1.0 | 0.00 | 0.05 | 0.00 | 62 | 1015.6 |
| 20260510054527 | 62 | 250 | 0.0 | 6.0 | 0.00 | 0.05 | 0.00 | 61 | 1015.4 |
| 20260510053027 | 63 | 98 | 0.0 | 1.0 | 0.00 | 0.05 | 0.00 | 60 | 1015.1 |
| 20260510051520 | 63 | 84 | 0.0 | 1.0 | 0.00 | 0.05 | 0.00 | 58 | 1015.1 |
| 20260510050022 | 64 | 131 | 0.0 | 1.0 | 0.00 | 0.05 | 0.00 | 57 | 1015.1 |
| 20260510044530 | 64 | 76 | 0.0 | 5.0 | 0.00 | 0.05 | 0.05 | 57 | 1014.7 |
| 20260510043026 | 64 | 40 | 0.0 | 3.0 | 0.00 | 0.05 | 0.05 | 55 | 1014.4 |
| 20260510041526 | 64 | 159 | 0.0 | 4.0 | 0.00 | 0.05 | 0.05 | 55 | 1014.5 |
| 20260510040026 | 64 | 229 | 0.0 | 2.0 | 0.00 | 0.05 | 0.05 | 56 | 1014.0 |
| 20260510034504 | 64 | 311 | 0.0 | 0.0 | 0.00 | 0.05 | 0.05 | 57 | 1013.8 |
| 20260510033010 | 64 | 31 | 0.0 | 1.0 | 0.00 | 0.05 | 0.05 | 58 | 1013.5 |
| 20260510031512 | 64 | 332 | 0.0 | 0.0 | 0.00 | 0.05 | 0.05 | 59 | 1013.3 |
| 20260510030018 | 64 | 340 | 0.0 | 0.0 | 0.00 | 0.05 | 0.05 | 60 | 1013.0 |
| 20260510024502 | 64 | 294 | 0.0 | 1.0 | 0.00 | 0.05 | 0.05 | 60 | 1012.4 |
| 20260510023007 | 63 | 23 | 0.0 | 1.0 | 0.00 | 0.05 | 0.05 | 62 | 1011.9 |
| 20260510021508 | 63 | 97 | 0.0 | 0.0 | 0.00 | 0.05 | 0.05 | 65 | 1011.7 |
| 20260510020016 | 64 | 97 | 0.0 | 0.0 | 0.00 | 0.05 | 0.05 | 61 | 1011.7 |
| 20260510014523 | 65 | 230 | 0.0 | 0.0 | 0.05 | 0.05 | 0.05 | 58 | 1011.3 |
| 20260510013006 | 66 | 143 | 0.0 | 2.0 | 0.05 | 0.05 | 0.05 | 56 | 1011.1 |
| 20260510011511 | 66 | 96 | 0.0 | 2.0 | 0.05 | 0.05 | 0.05 | 60 | 1010.5 |
| 20260510010012 | 68 | 131 | 0.0 | 2.0 | 0.05 | 0.05 | 0.05 | 59 | 1010.1 |
| 20260510004516 | 73 | 342 | 1.0 | 4.0 | 0.00 | 0.00 | 0.00 | 45 | 1012.0 |
| 20260510003025 | 74 | 84 | 0.0 | 2.0 | 0.00 | 0.00 | 0.00 | 40 | 1010.9 |
| 20260510001502 | 75 | 111 | 1.0 | 9.0 | 0.00 | 0.00 | 0.00 | 40 | 1009.9 |
| 20260510000007 | 76 | 75 | 0.0 | 2.0 | 0.00 | 0.00 | 0.00 | 41 | 1008.9 |
| 20260509234512 | 76 | 48 | 0.0 | 0.0 | 0.00 | 0.00 | 0.00 | 40 | 1008.6 |
| 20260509233016 | 76 | 156 | 0.0 | 0.0 | 0.00 | 0.00 | 0.00 | 42 | 1008.5 |
| 20260509231528 | 75 | 72 | 0.0 | 1.0 | 0.00 | 0.00 | 0.00 | 44 | 1008.7 |
| 20260509230006 | 76 | 65 | 0.0 | 4.0 | 0.00 | 0.00 | 0.00 | 43 | 1008.6 |
| 20260509224511 | 78 | 326 | 0.0 | 1.0 | 0.00 | 0.00 | 0.00 | 40 | 1009.0 |
| 20260509223018 | 78 | 265 | 0.0 | 1.0 | 0.00 | 0.00 | 0.00 | 39 | 1008.9 |
| 20260509221530 | 79 | 356 | 0.0 | 1.0 | 0.00 | 0.00 | 0.00 | 39 | 1008.9 |
| 20260509220023 | 79 | 61 | 0.0 | 4.0 | 0.00 | 0.00 | 0.00 | 37 | 1008.8 |
| 20260509213012 | 81 | 79 | 0.0 | 1.0 | 0.00 | 0.00 | 0.00 | 35 | 1008.7 |
| 20260509211514 | 82 | 290 | 0.0 | 1.0 | 0.00 | 0.00 | 0.00 | 35 | 1008.7 |
| 20260509210020 | 83 | 319 | 0.0 | 2.0 | 0.00 | 0.00 | 0.00 | 34 | 1008.7 |
| 20260509204525 | 84 | 40 | 0.0 | 2.0 | 0.00 | 0.00 | 0.00 | 32 | 1008.7 |
| 20260509203030 | 83 | 261 | 0.0 | 2.0 | 0.00 | 0.00 | 0.00 | 34 | 1008.8 |
| 20260509201513 | 82 | 248 | 0.0 | 0.0 | 0.00 | 0.00 | 0.00 | 35 | 1009.0 |
| 20260509200016 | 82 | 258 | 0.0 | 0.0 | 0.00 | 0.00 | 0.00 | 34 | 1008.9 |
| 20260509194524 | 80 | 255 | 0.0 | 0.0 | 0.00 | 0.00 | 0.00 | 39 | 1009.2 |
| 20260509193004 | 79 | 275 | 0.0 | 0.0 | 0.00 | 0.00 | 0.00 | 36 | 1009.2 |